This is the latest recevied weather packets stored in our database for station/object 9W2JBV-1. If no packets are shown the sender has not sent any weather packets the latest 10 day(s).
| Time | Temp. | Humidity | Pressure | Rain* | Wind** | Luminosity | Snow |
|---|---|---|---|---|---|---|---|
| 1777473760 | 32.78° C | 56% | 1017.7 hPa | - | - | - | - |
| 1777472560 | 32.78° C | 56% | 1017.6 hPa | - | - | - | - |
| 1777471362 | 32.78° C | 56% | 1017.6 hPa | - | - | - | - |
| 1777468959 | 32.78° C | 54% | 1017.1 hPa | - | - | - | - |
| 1777467760 | 32.78° C | 54% | 1017.1 hPa | - | - | - | - |
| 1777465397 | 32.78° C | 55% | 1016.6 hPa | - | - | - | - |
| 1777465359 | 32.78° C | 55% | 1016.6 hPa | - | - | - | - |
| 1777464159 | 32.78° C | 55% | 1016.2 hPa | - | - | - | - |
| 1777462959 | 32.78° C | 55% | 1015.7 hPa | - | - | - | - |
| 1777462490 | 32.78° C | 55% | 1015 hPa | - | - | - | - |
| 1777461759 | 32.78° C | 55% | 1015 hPa | - | - | - | - |
| 1777460559 | 32.78° C | 55% | 1014.8 hPa | - | - | - | - |
| 1777458158 | 32.78° C | 55% | 1014.3 hPa | - | - | - | - |
| 1777456958 | 32.22° C | 55% | 1014.6 hPa | - | - | - | - |
| 1777454558 | 32.78° C | 55% | 1014.7 hPa | - | - | - | - |
| 1777453361 | 33.89° C | 54% | 1014.3 hPa | - | - | - | - |
| 1777450957 | 34.44° C | 50% | 1013.5 hPa | - | - | - | - |
| 1777449757 | 35° C | 50% | 1013.6 hPa | - | - | - | - |
| 1777447358 | 35° C | 51% | 1013.9 hPa | - | - | - | - |
| 1777446167 | 35° C | 51% | 1014.3 hPa | - | - | - | - |
| 1777443757 | 35° C | 51% | 1015.2 hPa | - | - | - | - |
| 1777441362 | 34.44° C | 52% | 1016 hPa | - | - | - | - |
| 1777440164 | 33.89° C | 53% | 1016.4 hPa | - | - | - | - |
| 1777438964 | 33.89° C | 53% | 1016.7 hPa | - | - | - | - |
| 1777437762 | 33.89° C | 55% | 1017.1 hPa | - | - | - | - |
* Rain since midnight (hover to see other rain measurements)
** Current wind speed in m/s (hover to see current wind gust speed)